sensor_id;sensor_type;location;lat;lon;timestamp;P1;durP1;ratioP1;P2;durP2;ratioP2
70322;SDS011;57735;56.264;43.898;2022-12-18T00:02:02;29.48;;;11.20;;
70322;SDS011;57735;56.264;43.898;2022-12-18T00:04:35;30.38;;;10.93;;
70322;SDS011;57735;56.264;43.898;2022-12-18T00:07:06;29.20;;;10.38;;
70322;SDS011;57735;56.264;43.898;2022-12-18T00:09:37;25.70;;;9.93;;
70322;SDS011;57735;56.264;43.898;2022-12-18T00:12:08;33.03;;;11.52;;
70322;SDS011;57735;56.264;43.898;2022-12-18T00:14:39;32.75;;;12.38;;
70322;SDS011;57735;56.264;43.898;2022-12-18T00:17:09;29.08;;;11.32;;
70322;SDS011;57735;56.264;43.898;2022-12-18T00:19:40;32.80;;;11.35;;
70322;SDS011;57735;56.264;43.898;2022-12-18T00:22:11;29.90;;;11.05;;
70322;SDS011;57735;56.264;43.898;2022-12-18T00:24:53;31.05;;;10.25;;
70322;SDS011;57735;56.264;43.898;2022-12-18T00:27:24;31.05;;;12.38;;
70322;SDS011;57735;56.264;43.898;2022-12-18T00:29:55;32.30;;;10.45;;
70322;SDS011;57735;56.264;43.898;2022-12-18T00:32:25;30.92;;;11.00;;
70322;SDS011;57735;56.264;43.898;2022-12-18T00:34:56;29.45;;;11.40;;
70322;SDS011;57735;56.264;43.898;2022-12-18T00:37:27;28.10;;;10.77;;
70322;SDS011;57735;56.264;43.898;2022-12-18T00:39:58;32.00;;;11.43;;
70322;SDS011;57735;56.264;43.898;2022-12-18T00:42:29;28.48;;;10.90;;
70322;SDS011;57735;56.264;43.898;2022-12-18T00:45:18;27.83;;;11.15;;
70322;SDS011;57735;56.264;43.898;2022-12-18T00:47:49;31.50;;;11.30;;
70322;SDS011;57735;56.264;43.898;2022-12-18T00:50:20;27.42;;;11.07;;
70322;SDS011;57735;56.264;43.898;2022-12-18T00:52:51;25.58;;;9.18;;
70322;SDS011;57735;56.264;43.898;2022-12-18T00:55:22;27.75;;;10.57;;
70322;SDS011;57735;56.264;43.898;2022-12-18T00:57:53;25.33;;;9.55;;
70322;SDS011;57735;56.264;43.898;2022-12-18T01:00:24;27.58;;;9.55;;
70322;SDS011;57735;56.264;43.898;2022-12-18T01:02:55;27.75;;;9.70;;
70322;SDS011;57735;56.264;43.898;2022-12-18T01:05:26;29.02;;;10.98;;
70322;SDS011;57735;56.264;43.898;2022-12-18T01:07:59;26.63;;;10.75;;
70322;SDS011;57735;56.264;43.898;2022-12-18T01:10:31;23.23;;;9.07;;
70322;SDS011;57735;56.264;43.898;2022-12-18T01:13:02;22.60;;;8.65;;
70322;SDS011;57735;56.264;43.898;2022-12-18T01:15:33;23.63;;;9.15;;
70322;SDS011;57735;56.264;43.898;2022-12-18T01:18:04;20.05;;;7.50;;
70322;SDS011;57735;56.264;43.898;2022-12-18T01:20:35;30.73;;;9.77;;
70322;SDS011;57735;56.264;43.898;2022-12-18T01:23:05;23.48;;;8.85;;
70322;SDS011;57735;56.264;43.898;2022-12-18T01:25:38;21.50;;;9.00;;
70322;SDS011;57735;56.264;43.898;2022-12-18T01:28:09;24.40;;;8.85;;
70322;SDS011;57735;56.264;43.898;2022-12-18T01:30:42;28.10;;;9.82;;
70322;SDS011;57735;56.264;43.898;2022-12-18T01:33:13;26.58;;;9.27;;
70322;SDS011;57735;56.264;43.898;2022-12-18T01:35:46;25.23;;;9.65;;
70322;SDS011;57735;56.264;43.898;2022-12-18T01:38:17;25.88;;;10.07;;
70322;SDS011;57735;56.264;43.898;2022-12-18T01:40:48;28.02;;;10.20;;
70322;SDS011;57735;56.264;43.898;2022-12-18T01:43:19;23.70;;;9.55;;
70322;SDS011;57735;56.264;43.898;2022-12-18T01:45:50;25.17;;;8.95;;
70322;SDS011;57735;56.264;43.898;2022-12-18T01:48:20;25.08;;;9.02;;
70322;SDS011;57735;56.264;43.898;2022-12-18T01:50:51;24.73;;;9.60;;
70322;SDS011;57735;56.264;43.898;2022-12-18T01:53:22;25.25;;;9.15;;
70322;SDS011;57735;56.264;43.898;2022-12-18T01:55:56;23.25;;;9.40;;
70322;SDS011;57735;56.264;43.898;2022-12-18T02:01:17;20.25;;;8.52;;
70322;SDS011;57735;56.264;43.898;2022-12-18T02:03:50;19.02;;;8.48;;
70322;SDS011;57735;56.264;43.898;2022-12-18T02:06:25;20.27;;;8.50;;
70322;SDS011;57735;56.264;43.898;2022-12-18T02:09:12;22.52;;;9.30;;
70322;SDS011;57735;56.264;43.898;2022-12-18T02:11:50;22.10;;;8.43;;
70322;SDS011;57735;56.264;43.898;2022-12-18T02:14:44;25.40;;;8.55;;
70322;SDS011;57735;56.264;43.898;2022-12-18T02:20:54;22.90;;;8.88;;
70322;SDS011;57735;56.264;43.898;2022-12-18T02:23:52;22.05;;;8.18;;
70322;SDS011;57735;56.264;43.898;2022-12-18T02:26:58;21.98;;;8.57;;
70322;SDS011;57735;56.264;43.898;2022-12-18T02:29:39;23.27;;;8.48;;
70322;SDS011;57735;56.264;43.898;2022-12-18T02:32:15;20.02;;;8.55;;
70322;SDS011;57735;56.264;43.898;2022-12-18T02:34:52;16.35;;;6.97;;
70322;SDS011;57735;56.264;43.898;2022-12-18T02:37:26;22.70;;;8.20;;
70322;SDS011;57735;56.264;43.898;2022-12-18T02:39:58;22.20;;;7.25;;
70322;SDS011;57735;56.264;43.898;2022-12-18T02:42:30;23.77;;;8.20;;
70322;SDS011;57735;56.264;43.898;2022-12-18T02:45:02;16.10;;;7.55;;
70322;SDS011;57735;56.264;43.898;2022-12-18T02:47:39;15.52;;;6.28;;
70322;SDS011;57735;56.264;43.898;2022-12-18T02:50:16;19.58;;;7.72;;
70322;SDS011;57735;56.264;43.898;2022-12-18T02:58:41;22.52;;;7.97;;
70322;SDS011;57735;56.264;43.898;2022-12-18T03:04:14;20.95;;;8.63;;
70322;SDS011;57735;56.264;43.898;2022-12-18T03:06:54;18.95;;;6.72;;
70322;SDS011;57735;56.264;43.898;2022-12-18T03:09:32;17.05;;;6.32;;
70322;SDS011;57735;56.264;43.898;2022-12-18T03:12:12;18.15;;;6.45;;
70322;SDS011;57735;56.264;43.898;2022-12-18T03:20:16;12.70;;;5.57;;
70322;SDS011;57735;56.264;43.898;2022-12-18T03:22:51;15.45;;;5.10;;
70322;SDS011;57735;56.264;43.898;2022-12-18T03:25:26;17.08;;;6.22;;
70322;SDS011;57735;56.264;43.898;2022-12-18T03:27:58;15.95;;;6.13;;
70322;SDS011;57735;56.264;43.898;2022-12-18T03:30:32;15.48;;;6.15;;
70322;SDS011;57735;56.264;43.898;2022-12-18T03:33:08;16.50;;;6.32;;
70322;SDS011;57735;56.264;43.898;2022-12-18T03:35:45;16.38;;;6.80;;
70322;SDS011;57735;56.264;43.898;2022-12-18T03:38:18;15.98;;;6.15;;
70322;SDS011;57735;56.264;43.898;2022-12-18T03:40:56;11.30;;;4.93;;
70322;SDS011;57735;56.264;43.898;2022-12-18T03:46:15;14.32;;;5.55;;
70322;SDS011;57735;56.264;43.898;2022-12-18T03:49:08;14.27;;;5.90;;
70322;SDS011;57735;56.264;43.898;2022-12-18T03:52:01;15.80;;;5.30;;
70322;SDS011;57735;56.264;43.898;2022-12-18T03:54:36;14.00;;;5.30;;
70322;SDS011;57735;56.264;43.898;2022-12-18T03:57:11;12.73;;;4.85;;
70322;SDS011;57735;56.264;43.898;2022-12-18T03:59:50;12.35;;;5.20;;
70322;SDS011;57735;56.264;43.898;2022-12-18T04:02:26;13.43;;;4.75;;
70322;SDS011;57735;56.264;43.898;2022-12-18T04:04:59;14.40;;;5.70;;
70322;SDS011;57735;56.264;43.898;2022-12-18T04:10:05;11.77;;;4.85;;
70322;SDS011;57735;56.264;43.898;2022-12-18T04:12:44;10.77;;;4.97;;
70322;SDS011;57735;56.264;43.898;2022-12-18T04:15:15;12.73;;;5.35;;
70322;SDS011;57735;56.264;43.898;2022-12-18T04:17:49;13.30;;;5.07;;
70322;SDS011;57735;56.264;43.898;2022-12-18T04:20:20;14.38;;;5.10;;
70322;SDS011;57735;56.264;43.898;2022-12-18T04:22:51;12.15;;;5.45;;
70322;SDS011;57735;56.264;43.898;2022-12-18T04:25:22;13.02;;;5.30;;
70322;SDS011;57735;56.264;43.898;2022-12-18T04:27:52;10.75;;;5.30;;
70322;SDS011;57735;56.264;43.898;2022-12-18T04:30:23;11.68;;;4.45;;
70322;SDS011;57735;56.264;43.898;2022-12-18T04:32:54;11.70;;;5.20;;
70322;SDS011;57735;56.264;43.898;2022-12-18T04:35:25;12.65;;;4.78;;
70322;SDS011;57735;56.264;43.898;2022-12-18T04:38:03;15.65;;;6.05;;
70322;SDS011;57735;56.264;43.898;2022-12-18T04:40:37;10.73;;;4.22;;
70322;SDS011;57735;56.264;43.898;2022-12-18T04:43:08;12.25;;;5.40;;
70322;SDS011;57735;56.264;43.898;2022-12-18T04:45:39;12.48;;;4.95;;
70322;SDS011;57735;56.264;43.898;2022-12-18T04:48:10;11.98;;;5.00;;
70322;SDS011;57735;56.264;43.898;2022-12-18T04:50:40;12.02;;;5.22;;
70322;SDS011;57735;56.264;43.898;2022-12-18T04:53:11;14.23;;;5.53;;
70322;SDS011;57735;56.264;43.898;2022-12-18T04:55:44;10.38;;;5.00;;
70322;SDS011;57735;56.264;43.898;2022-12-18T04:58:15;12.07;;;5.80;;
70322;SDS011;57735;56.264;43.898;2022-12-18T05:00:49;14.65;;;5.97;;
70322;SDS011;57735;56.264;43.898;2022-12-18T05:03:20;13.93;;;5.53;;
70322;SDS011;57735;56.264;43.898;2022-12-18T05:05:53;15.07;;;6.47;;
70322;SDS011;57735;56.264;43.898;2022-12-18T05:08:24;14.05;;;5.68;;
70322;SDS011;57735;56.264;43.898;2022-12-18T05:11:04;14.10;;;5.82;;
70322;SDS011;57735;56.264;43.898;2022-12-18T05:13:36;12.90;;;5.57;;
70322;SDS011;57735;56.264;43.898;2022-12-18T05:16:08;14.68;;;6.13;;
70322;SDS011;57735;56.264;43.898;2022-12-18T05:18:42;17.73;;;6.25;;
70322;SDS011;57735;56.264;43.898;2022-12-18T05:21:13;13.63;;;5.97;;
70322;SDS011;57735;56.264;43.898;2022-12-18T05:23:43;16.02;;;7.65;;
70322;SDS011;57735;56.264;43.898;2022-12-18T05:26:15;26.77;;;10.25;;
70322;SDS011;57735;56.264;43.898;2022-12-18T05:28:50;19.70;;;8.73;;
70322;SDS011;57735;56.264;43.898;2022-12-18T05:31:21;21.23;;;9.18;;
70322;SDS011;57735;56.264;43.898;2022-12-18T05:33:51;20.77;;;8.00;;
70322;SDS011;57735;56.264;43.898;2022-12-18T05:36:25;21.05;;;8.98;;
70322;SDS011;57735;56.264;43.898;2022-12-18T05:38:56;14.13;;;6.47;;
70322;SDS011;57735;56.264;43.898;2022-12-18T05:41:27;14.38;;;4.70;;
70322;SDS011;57735;56.264;43.898;2022-12-18T05:43:58;15.40;;;6.63;;
70322;SDS011;57735;56.264;43.898;2022-12-18T05:46:29;18.02;;;7.32;;
70322;SDS011;57735;56.264;43.898;2022-12-18T05:49:00;16.95;;;7.13;;
70322;SDS011;57735;56.264;43.898;2022-12-18T05:51:31;13.52;;;5.63;;
70322;SDS011;57735;56.264;43.898;2022-12-18T05:54:02;12.13;;;5.78;;
70322;SDS011;57735;56.264;43.898;2022-12-18T05:56:33;14.27;;;6.60;;
70322;SDS011;57735;56.264;43.898;2022-12-18T05:59:06;14.00;;;5.80;;
70322;SDS011;57735;56.264;43.898;2022-12-18T06:01:37;16.33;;;6.70;;
70322;SDS011;57735;56.264;43.898;2022-12-18T06:04:08;14.57;;;6.22;;
70322;SDS011;57735;56.264;43.898;2022-12-18T06:06:39;14.60;;;6.30;;
70322;SDS011;57735;56.264;43.898;2022-12-18T06:09:17;12.82;;;5.95;;
70322;SDS011;57735;56.264;43.898;2022-12-18T06:11:47;15.52;;;5.85;;
70322;SDS011;57735;56.264;43.898;2022-12-18T06:14:18;14.65;;;5.97;;
70322;SDS011;57735;56.264;43.898;2022-12-18T06:16:51;15.65;;;6.82;;
70322;SDS011;57735;56.264;43.898;2022-12-18T06:19:22;11.98;;;5.32;;
70322;SDS011;57735;56.264;43.898;2022-12-18T06:21:53;12.15;;;5.93;;
70322;SDS011;57735;56.264;43.898;2022-12-18T06:24:24;16.95;;;6.72;;
70322;SDS011;57735;56.264;43.898;2022-12-18T06:26:55;15.90;;;6.55;;
70322;SDS011;57735;56.264;43.898;2022-12-18T06:29:26;16.55;;;6.93;;
70322;SDS011;57735;56.264;43.898;2022-12-18T06:31:57;14.57;;;6.88;;
70322;SDS011;57735;56.264;43.898;2022-12-18T06:34:27;14.27;;;7.05;;
70322;SDS011;57735;56.264;43.898;2022-12-18T06:37:03;12.68;;;6.45;;
70322;SDS011;57735;56.264;43.898;2022-12-18T06:39:34;13.40;;;5.70;;
70322;SDS011;57735;56.264;43.898;2022-12-18T06:42:04;12.20;;;5.40;;
70322;SDS011;57735;56.264;43.898;2022-12-18T06:44:35;14.02;;;5.97;;
70322;SDS011;57735;56.264;43.898;2022-12-18T06:47:08;15.00;;;6.30;;
70322;SDS011;57735;56.264;43.898;2022-12-18T06:49:39;15.32;;;6.18;;
70322;SDS011;57735;56.264;43.898;2022-12-18T06:52:10;15.05;;;7.18;;
70322;SDS011;57735;56.264;43.898;2022-12-18T06:54:41;13.20;;;5.45;;
70322;SDS011;57735;56.264;43.898;2022-12-18T06:57:12;12.15;;;6.00;;
70322;SDS011;57735;56.264;43.898;2022-12-18T06:59:42;14.25;;;6.15;;
70322;SDS011;57735;56.264;43.898;2022-12-18T07:02:13;17.10;;;6.15;;
70322;SDS011;57735;56.264;43.898;2022-12-18T07:04:44;12.65;;;5.03;;
70322;SDS011;57735;56.264;43.898;2022-12-18T07:07:15;14.65;;;6.13;;
70322;SDS011;57735;56.264;43.898;2022-12-18T07:09:48;17.55;;;6.22;;
70322;SDS011;57735;56.264;43.898;2022-12-18T07:12:20;18.42;;;7.25;;
70322;SDS011;57735;56.264;43.898;2022-12-18T07:14:51;15.55;;;6.43;;
70322;SDS011;57735;56.264;43.898;2022-12-18T07:17:21;15.50;;;6.97;;
70322;SDS011;57735;56.264;43.898;2022-12-18T07:19:52;13.10;;;6.05;;
70322;SDS011;57735;56.264;43.898;2022-12-18T07:22:24;15.05;;;7.03;;
70322;SDS011;57735;56.264;43.898;2022-12-18T07:24:56;17.35;;;6.85;;
70322;SDS011;57735;56.264;43.898;2022-12-18T07:27:26;20.15;;;8.23;;
70322;SDS011;57735;56.264;43.898;2022-12-18T07:29:57;22.83;;;8.13;;
70322;SDS011;57735;56.264;43.898;2022-12-18T07:32:28;19.35;;;7.70;;
70322;SDS011;57735;56.264;43.898;2022-12-18T07:35:00;20.15;;;8.05;;
70322;SDS011;57735;56.264;43.898;2022-12-18T07:37:33;18.17;;;7.00;;
70322;SDS011;57735;56.264;43.898;2022-12-18T07:40:04;21.10;;;7.93;;
70322;SDS011;57735;56.264;43.898;2022-12-18T07:42:35;20.40;;;7.85;;
70322;SDS011;57735;56.264;43.898;2022-12-18T07:45:07;19.70;;;7.97;;
70322;SDS011;57735;56.264;43.898;2022-12-18T07:47:41;18.17;;;8.30;;
70322;SDS011;57735;56.264;43.898;2022-12-18T07:50:14;16.83;;;7.85;;
70322;SDS011;57735;56.264;43.898;2022-12-18T07:52:45;16.85;;;7.40;;
70322;SDS011;57735;56.264;43.898;2022-12-18T07:55:16;15.20;;;7.13;;
70322;SDS011;57735;56.264;43.898;2022-12-18T07:57:47;18.65;;;7.43;;
70322;SDS011;57735;56.264;43.898;2022-12-18T08:00:18;19.92;;;8.32;;
70322;SDS011;57735;56.264;43.898;2022-12-18T08:02:49;22.52;;;10.43;;
70322;SDS011;57735;56.264;43.898;2022-12-18T08:05:19;28.48;;;10.80;;
70322;SDS011;57735;56.264;43.898;2022-12-18T08:07:51;19.63;;;8.68;;
70322;SDS011;57735;56.264;43.898;2022-12-18T08:10:22;19.30;;;8.45;;
70322;SDS011;57735;56.264;43.898;2022-12-18T08:12:55;18.98;;;7.72;;
70322;SDS011;57735;56.264;43.898;2022-12-18T08:15:26;23.95;;;9.88;;
70322;SDS011;57735;56.264;43.898;2022-12-18T08:17:57;24.17;;;9.25;;
70322;SDS011;57735;56.264;43.898;2022-12-18T08:20:30;21.15;;;8.50;;
70322;SDS011;57735;56.264;43.898;2022-12-18T08:23:01;18.27;;;7.75;;
70322;SDS011;57735;56.264;43.898;2022-12-18T08:25:32;19.48;;;8.35;;
70322;SDS011;57735;56.264;43.898;2022-12-18T08:28:04;14.25;;;7.22;;
70322;SDS011;57735;56.264;43.898;2022-12-18T08:30:35;22.98;;;9.05;;
70322;SDS011;57735;56.264;43.898;2022-12-18T08:33:08;22.85;;;9.02;;
70322;SDS011;57735;56.264;43.898;2022-12-18T08:35:39;22.10;;;8.50;;
70322;SDS011;57735;56.264;43.898;2022-12-18T08:38:10;21.92;;;9.07;;
70322;SDS011;57735;56.264;43.898;2022-12-18T08:40:40;24.20;;;8.85;;
70322;SDS011;57735;56.264;43.898;2022-12-18T08:43:11;21.80;;;8.07;;
70322;SDS011;57735;56.264;43.898;2022-12-18T08:46:01;20.13;;;7.00;;
70322;SDS011;57735;56.264;43.898;2022-12-18T08:48:31;16.98;;;7.15;;
70322;SDS011;57735;56.264;43.898;2022-12-18T08:51:03;26.45;;;9.40;;
70322;SDS011;57735;56.264;43.898;2022-12-18T08:53:41;20.58;;;8.15;;
70322;SDS011;57735;56.264;43.898;2022-12-18T08:56:12;18.92;;;6.68;;
70322;SDS011;57735;56.264;43.898;2022-12-18T08:58:44;21.40;;;8.52;;
70322;SDS011;57735;56.264;43.898;2022-12-18T09:01:15;23.67;;;9.68;;
70322;SDS011;57735;56.264;43.898;2022-12-18T09:03:48;24.48;;;9.13;;
70322;SDS011;57735;56.264;43.898;2022-12-18T09:06:20;22.55;;;9.32;;
70322;SDS011;57735;56.264;43.898;2022-12-18T09:08:52;20.52;;;8.55;;
70322;SDS011;57735;56.264;43.898;2022-12-18T09:11:24;18.98;;;7.82;;
70322;SDS011;57735;56.264;43.898;2022-12-18T09:13:57;22.08;;;8.68;;
70322;SDS011;57735;56.264;43.898;2022-12-18T09:16:30;18.70;;;7.80;;
70322;SDS011;57735;56.264;43.898;2022-12-18T09:19:03;21.27;;;8.30;;
70322;SDS011;57735;56.264;43.898;2022-12-18T09:21:37;17.63;;;6.50;;
70322;SDS011;57735;56.264;43.898;2022-12-18T09:24:12;18.52;;;7.18;;
70322;SDS011;57735;56.264;43.898;2022-12-18T09:26:44;18.85;;;7.50;;
70322;SDS011;57735;56.264;43.898;2022-12-18T09:29:15;15.55;;;6.88;;
70322;SDS011;57735;56.264;43.898;2022-12-18T09:31:46;21.88;;;7.88;;
70322;SDS011;57735;56.264;43.898;2022-12-18T09:34:17;19.88;;;8.35;;
70322;SDS011;57735;56.264;43.898;2022-12-18T09:36:51;18.67;;;8.25;;
70322;SDS011;57735;56.264;43.898;2022-12-18T09:39:22;16.10;;;7.57;;
70322;SDS011;57735;56.264;43.898;2022-12-18T09:41:54;18.88;;;8.25;;
70322;SDS011;57735;56.264;43.898;2022-12-18T09:44:39;24.50;;;8.80;;
70322;SDS011;57735;56.264;43.898;2022-12-18T09:47:22;23.75;;;9.25;;
70322;SDS011;57735;56.264;43.898;2022-12-18T09:49:58;21.10;;;8.32;;
70322;SDS011;57735;56.264;43.898;2022-12-18T09:52:38;25.20;;;9.05;;
70322;SDS011;57735;56.264;43.898;2022-12-18T09:58:19;24.20;;;9.95;;
70322;SDS011;57735;56.264;43.898;2022-12-18T10:01:09;19.73;;;7.68;;
70322;SDS011;57735;56.264;43.898;2022-12-18T10:03:51;20.40;;;8.43;;
70322;SDS011;57735;56.264;43.898;2022-12-18T10:06:37;18.33;;;7.78;;
70322;SDS011;57735;56.264;43.898;2022-12-18T10:09:33;23.33;;;9.10;;
70322;SDS011;57735;56.264;43.898;2022-12-18T10:18:10;17.90;;;8.07;;
70322;SDS011;57735;56.264;43.898;2022-12-18T10:20:47;17.13;;;7.78;;
70322;SDS011;57735;56.264;43.898;2022-12-18T10:26:15;21.92;;;8.85;;
70322;SDS011;57735;56.264;43.898;2022-12-18T10:28:46;28.30;;;11.30;;
70322;SDS011;57735;56.264;43.898;2022-12-18T10:31:18;22.70;;;8.85;;
70322;SDS011;57735;56.264;43.898;2022-12-18T10:33:53;29.48;;;10.52;;
70322;SDS011;57735;56.264;43.898;2022-12-18T10:36:26;23.42;;;9.27;;
70322;SDS011;57735;56.264;43.898;2022-12-18T10:39:18;26.90;;;8.35;;
70322;SDS011;57735;56.264;43.898;2022-12-18T10:42:39;21.42;;;7.78;;
70322;SDS011;57735;56.264;43.898;2022-12-18T10:45:01;24.65;;;10.15;;
70322;SDS011;57735;56.264;43.898;2022-12-18T10:47:36;18.50;;;6.95;;
70322;SDS011;57735;56.264;43.898;2022-12-18T10:53:03;28.70;;;10.30;;
70322;SDS011;57735;56.264;43.898;2022-12-18T10:55:36;25.00;;;9.52;;
70322;SDS011;57735;56.264;43.898;2022-12-18T10:58:42;19.73;;;7.85;;
70322;SDS011;57735;56.264;43.898;2022-12-18T11:01:14;21.80;;;8.63;;
70322;SDS011;57735;56.264;43.898;2022-12-18T11:04:08;21.25;;;8.15;;
70322;SDS011;57735;56.264;43.898;2022-12-18T11:06:52;25.92;;;8.55;;
70322;SDS011;57735;56.264;43.898;2022-12-18T11:09:28;26.13;;;10.27;;
70322;SDS011;57735;56.264;43.898;2022-12-18T11:12:17;22.95;;;7.45;;
70322;SDS011;57735;56.264;43.898;2022-12-18T11:14:53;25.45;;;9.35;;
70322;SDS011;57735;56.264;43.898;2022-12-18T11:17:33;19.90;;;8.60;;
70322;SDS011;57735;56.264;43.898;2022-12-18T11:20:06;24.08;;;8.98;;
70322;SDS011;57735;56.264;43.898;2022-12-18T11:23:04;21.73;;;7.57;;
70322;SDS011;57735;56.264;43.898;2022-12-18T11:25:42;18.67;;;7.78;;
70322;SDS011;57735;56.264;43.898;2022-12-18T11:28:27;23.92;;;9.13;;
70322;SDS011;57735;56.264;43.898;2022-12-18T11:34:01;21.05;;;8.00;;
70322;SDS011;57735;56.264;43.898;2022-12-18T11:36:55;15.75;;;6.90;;
70322;SDS011;57735;56.264;43.898;2022-12-18T11:39:33;21.85;;;8.52;;
70322;SDS011;57735;56.264;43.898;2022-12-18T11:42:12;19.27;;;7.20;;
70322;SDS011;57735;56.264;43.898;2022-12-18T11:44:51;15.02;;;7.03;;
70322;SDS011;57735;56.264;43.898;2022-12-18T11:50:52;14.43;;;6.07;;
70322;SDS011;57735;56.264;43.898;2022-12-18T11:53:27;12.77;;;5.38;;
70322;SDS011;57735;56.264;43.898;2022-12-18T12:18:41;14.68;;;5.97;;
70322;SDS011;57735;56.264;43.898;2022-12-18T12:21:39;16.52;;;6.95;;
70322;SDS011;57735;56.264;43.898;2022-12-18T12:24:19;20.48;;;6.18;;
70322;SDS011;57735;56.264;43.898;2022-12-18T12:27:07;16.45;;;6.60;;
70322;SDS011;57735;56.264;43.898;2022-12-18T12:33:18;15.27;;;5.90;;
70322;SDS011;57735;56.264;43.898;2022-12-18T12:39:21;12.15;;;5.18;;
70322;SDS011;57735;56.264;43.898;2022-12-18T12:41:57;14.70;;;6.32;;
70322;SDS011;57735;56.264;43.898;2022-12-18T12:44:48;20.45;;;6.38;;
70322;SDS011;57735;56.264;43.898;2022-12-18T12:47:25;10.10;;;4.97;;
70322;SDS011;57735;56.264;43.898;2022-12-18T12:50:02;12.88;;;4.63;;
70322;SDS011;57735;56.264;43.898;2022-12-18T12:52:40;11.35;;;5.18;;
70322;SDS011;57735;56.264;43.898;2022-12-18T12:55:17;13.90;;;6.10;;
70322;SDS011;57735;56.264;43.898;2022-12-18T13:01:28;11.35;;;4.75;;
70322;SDS011;57735;56.264;43.898;2022-12-18T13:06:36;13.70;;;5.63;;
70322;SDS011;57735;56.264;43.898;2022-12-18T13:09:13;12.52;;;5.05;;
70322;SDS011;57735;56.264;43.898;2022-12-18T13:11:47;12.90;;;5.28;;
70322;SDS011;57735;56.264;43.898;2022-12-18T13:14:40;12.25;;;5.40;;
70322;SDS011;57735;56.264;43.898;2022-12-18T13:19:52;13.57;;;6.22;;
70322;SDS011;57735;56.264;43.898;2022-12-18T13:22:46;17.63;;;6.15;;
70322;SDS011;57735;56.264;43.898;2022-12-18T13:25:35;14.05;;;5.57;;
70322;SDS011;57735;56.264;43.898;2022-12-18T13:28:10;10.82;;;4.97;;
70322;SDS011;57735;56.264;43.898;2022-12-18T13:38:45;9.95;;;4.43;;
70322;SDS011;57735;56.264;43.898;2022-12-18T13:43:54;10.13;;;4.78;;
70322;SDS011;57735;56.264;43.898;2022-12-18T13:46:47;14.10;;;5.55;;
70322;SDS011;57735;56.264;43.898;2022-12-18T13:49:24;12.02;;;5.82;;
70322;SDS011;57735;56.264;43.898;2022-12-18T13:52:16;12.63;;;5.20;;
70322;SDS011;57735;56.264;43.898;2022-12-18T13:54:51;11.48;;;5.65;;
70322;SDS011;57735;56.264;43.898;2022-12-18T14:02:59;13.20;;;5.50;;
70322;SDS011;57735;56.264;43.898;2022-12-18T14:05:34;11.60;;;5.07;;
70322;SDS011;57735;56.264;43.898;2022-12-18T14:08:08;14.80;;;6.30;;
70322;SDS011;57735;56.264;43.898;2022-12-18T14:10:42;9.10;;;4.07;;
70322;SDS011;57735;56.264;43.898;2022-12-18T14:13:37;12.23;;;5.57;;
70322;SDS011;57735;56.264;43.898;2022-12-18T14:16:12;12.75;;;5.55;;
70322;SDS011;57735;56.264;43.898;2022-12-18T14:18:55;10.88;;;4.88;;
70322;SDS011;57735;56.264;43.898;2022-12-18T14:21:28;12.93;;;5.38;;
70322;SDS011;57735;56.264;43.898;2022-12-18T14:24:03;14.82;;;5.82;;
70322;SDS011;57735;56.264;43.898;2022-12-18T14:26:34;16.42;;;5.40;;
70322;SDS011;57735;56.264;43.898;2022-12-18T14:29:23;16.33;;;5.55;;
70322;SDS011;57735;56.264;43.898;2022-12-18T14:32:06;15.65;;;6.18;;
70322;SDS011;57735;56.264;43.898;2022-12-18T14:34:51;10.82;;;5.53;;
70322;SDS011;57735;56.264;43.898;2022-12-18T14:37:24;12.63;;;5.18;;
70322;SDS011;57735;56.264;43.898;2022-12-18T14:39:57;8.48;;;3.80;;
70322;SDS011;57735;56.264;43.898;2022-12-18T14:42:29;19.67;;;6.63;;
70322;SDS011;57735;56.264;43.898;2022-12-18T14:48:47;13.30;;;5.60;;
70322;SDS011;57735;56.264;43.898;2022-12-18T14:53:41;11.38;;;4.40;;
70322;SDS011;57735;56.264;43.898;2022-12-18T14:59:12;6.47;;;2.72;;
70322;SDS011;57735;56.264;43.898;2022-12-18T15:04:45;15.85;;;5.72;;
70322;SDS011;57735;56.264;43.898;2022-12-18T15:07:17;14.18;;;5.57;;
70322;SDS011;57735;56.264;43.898;2022-12-18T15:10:14;13.57;;;5.13;;
70322;SDS011;57735;56.264;43.898;2022-12-18T15:13:06;15.60;;;5.50;;
70322;SDS011;57735;56.264;43.898;2022-12-18T15:15:44;11.60;;;4.68;;
70322;SDS011;57735;56.264;43.898;2022-12-18T15:18:17;13.65;;;5.53;;
70322;SDS011;57735;56.264;43.898;2022-12-18T15:21:07;18.77;;;4.82;;
70322;SDS011;57735;56.264;43.898;2022-12-18T15:26:15;12.77;;;5.72;;
70322;SDS011;57735;56.264;43.898;2022-12-18T15:28:54;7.53;;;3.90;;
70322;SDS011;57735;56.264;43.898;2022-12-18T15:36:38;17.15;;;7.28;;
70322;SDS011;57735;56.264;43.898;2022-12-18T15:39:10;17.27;;;6.22;;
70322;SDS011;57735;56.264;43.898;2022-12-18T15:41:42;11.98;;;5.22;;
70322;SDS011;57735;56.264;43.898;2022-12-18T15:44:33;13.60;;;5.75;;
70322;SDS011;57735;56.264;43.898;2022-12-18T15:47:07;14.90;;;5.22;;
70322;SDS011;57735;56.264;43.898;2022-12-18T15:49:42;14.77;;;5.78;;
70322;SDS011;57735;56.264;43.898;2022-12-18T15:52:12;13.70;;;5.93;;
70322;SDS011;57735;56.264;43.898;2022-12-18T15:54:46;12.43;;;5.88;;
70322;SDS011;57735;56.264;43.898;2022-12-18T15:57:35;9.68;;;4.00;;
70322;SDS011;57735;56.264;43.898;2022-12-18T16:00:10;10.52;;;5.18;;
70322;SDS011;57735;56.264;43.898;2022-12-18T16:02:42;11.55;;;5.03;;
70322;SDS011;57735;56.264;43.898;2022-12-18T16:05:17;12.85;;;5.03;;
70322;SDS011;57735;56.264;43.898;2022-12-18T16:07:50;14.25;;;5.35;;
70322;SDS011;57735;56.264;43.898;2022-12-18T16:10:21;10.10;;;4.32;;
70322;SDS011;57735;56.264;43.898;2022-12-18T16:12:51;11.98;;;5.57;;
70322;SDS011;57735;56.264;43.898;2022-12-18T16:15:22;11.20;;;4.97;;
70322;SDS011;57735;56.264;43.898;2022-12-18T16:17:56;12.70;;;5.30;;
70322;SDS011;57735;56.264;43.898;2022-12-18T16:20:29;15.20;;;5.75;;
70322;SDS011;57735;56.264;43.898;2022-12-18T16:23:00;10.90;;;4.50;;
70322;SDS011;57735;56.264;43.898;2022-12-18T16:25:31;13.23;;;4.60;;
70322;SDS011;57735;56.264;43.898;2022-12-18T16:28:02;15.45;;;6.13;;
70322;SDS011;57735;56.264;43.898;2022-12-18T16:30:36;11.65;;;5.30;;
70322;SDS011;57735;56.264;43.898;2022-12-18T16:33:07;8.40;;;3.63;;
70322;SDS011;57735;56.264;43.898;2022-12-18T16:35:40;12.73;;;5.75;;
70322;SDS011;57735;56.264;43.898;2022-12-18T16:38:11;10.98;;;4.32;;
70322;SDS011;57735;56.264;43.898;2022-12-18T16:40:41;8.18;;;3.28;;
70322;SDS011;57735;56.264;43.898;2022-12-18T16:43:32;11.40;;;4.32;;
70322;SDS011;57735;56.264;43.898;2022-12-18T16:46:03;8.30;;;3.70;;
70322;SDS011;57735;56.264;43.898;2022-12-18T16:48:34;11.60;;;4.55;;
70322;SDS011;57735;56.264;43.898;2022-12-18T16:51:05;13.55;;;5.22;;
70322;SDS011;57735;56.264;43.898;2022-12-18T16:53:36;12.45;;;6.00;;
70322;SDS011;57735;56.264;43.898;2022-12-18T16:56:07;10.70;;;4.35;;
70322;SDS011;57735;56.264;43.898;2022-12-18T16:58:38;10.35;;;4.40;;
70322;SDS011;57735;56.264;43.898;2022-12-18T17:01:09;13.35;;;5.70;;
70322;SDS011;57735;56.264;43.898;2022-12-18T17:03:41;11.73;;;5.03;;
70322;SDS011;57735;56.264;43.898;2022-12-18T17:06:11;15.77;;;4.72;;
70322;SDS011;57735;56.264;43.898;2022-12-18T17:08:42;8.48;;;3.75;;